createdAt,value
2022-12-20T00:01:44.935Z,4.10
2022-12-20T00:04:12.649Z,4.10
2022-12-20T00:06:39.334Z,4.10
2022-12-20T00:09:07.134Z,4.20
2022-12-20T00:11:34.256Z,4.20
2022-12-20T00:14:00.911Z,4.20
2022-12-20T00:16:28.702Z,4.20
2022-12-20T00:18:59.759Z,4.20
2022-12-20T00:21:26.829Z,4.20
2022-12-20T00:23:53.512Z,4.10
2022-12-20T00:26:21.486Z,4.20
2022-12-20T00:28:48.419Z,4.20
2022-12-20T00:31:16.140Z,4.10
2022-12-20T00:33:44.902Z,4.10
2022-12-20T00:36:11.917Z,4.10
2022-12-20T00:38:38.695Z,4.10
2022-12-20T00:41:05.507Z,4.00
2022-12-20T00:43:32.651Z,3.90
2022-12-20T00:45:59.707Z,3.90
2022-12-20T00:48:26.940Z,3.90
2022-12-20T00:50:58.240Z,3.80
2022-12-20T00:53:26.728Z,3.70
2022-12-20T00:55:53.574Z,3.60
2022-12-20T00:58:20.545Z,3.60
2022-12-20T01:00:52.169Z,3.50
2022-12-20T01:03:23.682Z,3.50
2022-12-20T01:05:51.873Z,3.40
2022-12-20T01:08:19.565Z,3.40
2022-12-20T01:10:46.472Z,3.40
2022-12-20T01:13:13.291Z,3.40
2022-12-20T01:15:40.002Z,3.30
2022-12-20T01:18:06.743Z,3.30
2022-12-20T01:20:33.422Z,3.30
2022-12-20T01:23:00.121Z,3.30
2022-12-20T01:25:26.878Z,3.30
2022-12-20T01:27:53.695Z,3.30
2022-12-20T01:30:20.349Z,3.30
2022-12-20T01:32:47.233Z,3.30
2022-12-20T01:35:13.897Z,3.30
2022-12-20T01:37:40.651Z,3.20
2022-12-20T01:40:07.734Z,3.20
2022-12-20T01:42:34.716Z,3.20
2022-12-20T01:45:02.028Z,3.20
2022-12-20T01:47:30.511Z,3.20
2022-12-20T01:49:58.345Z,3.20
2022-12-20T01:52:35.057Z,3.10
2022-12-20T01:55:05.326Z,3.10
2022-12-20T01:58:10.823Z,3.20
2022-12-20T02:00:37.740Z,3.30
2022-12-20T02:03:08.487Z,3.30
2022-12-20T02:05:39.876Z,3.40
2022-12-20T02:08:07.880Z,3.50
2022-12-20T02:10:50.548Z,3.50
2022-12-20T02:13:24.068Z,3.60
2022-12-20T02:15:57.928Z,3.70
2022-12-20T02:18:29.649Z,3.80
2022-12-20T02:21:13.629Z,3.80
2022-12-20T02:23:46.670Z,3.90
2022-12-20T02:26:26.948Z,4.00
2022-12-20T02:28:53.620Z,4.10
2022-12-20T02:31:25.016Z,4.30
2022-12-20T02:33:52.217Z,4.50
2022-12-20T02:36:19.910Z,4.70
2022-12-20T02:38:49.466Z,4.80
2022-12-20T02:41:19.810Z,5.00
2022-12-20T02:44:07.778Z,5.10
2022-12-20T02:46:35.100Z,5.20
2022-12-20T02:49:04.238Z,5.30
2022-12-20T02:51:31.705Z,5.50
2022-12-20T02:53:59.236Z,5.50
2022-12-20T02:56:33.240Z,5.60
2022-12-20T02:59:03.394Z,5.70
2022-12-20T03:01:39.365Z,5.80
2022-12-20T03:04:06.696Z,5.80
2022-12-20T03:06:33.657Z,5.80
2022-12-20T03:09:00.474Z,5.80
2022-12-20T03:11:30.258Z,5.80
2022-12-20T03:13:57.235Z,5.80
2022-12-20T03:16:24.076Z,5.80
2022-12-20T03:18:50.905Z,5.70
2022-12-20T03:21:17.907Z,5.70
2022-12-20T03:23:44.669Z,5.70
2022-12-20T03:26:11.498Z,5.60
2022-12-20T03:28:44.899Z,5.60
2022-12-20T03:31:15.646Z,5.60
2022-12-20T03:33:47.285Z,5.70
2022-12-20T03:36:14.465Z,5.70
2022-12-20T03:38:41.474Z,5.60
2022-12-20T03:41:08.880Z,5.60
2022-12-20T03:43:35.633Z,5.50
2022-12-20T03:46:02.523Z,5.50
2022-12-20T03:48:34.744Z,5.40
2022-12-20T03:51:01.430Z,5.40
2022-12-20T03:53:28.131Z,5.40
2022-12-20T03:55:55.108Z,5.40
2022-12-20T03:58:22.036Z,5.30
2022-12-20T04:00:48.864Z,5.20
2022-12-20T04:03:40.173Z,5.10
2022-12-20T04:06:07.222Z,5.10
2022-12-20T04:08:33.953Z,5.10
2022-12-20T04:11:19.174Z,5.10
2022-12-20T04:13:52.137Z,5.10
2022-12-20T04:16:20.363Z,5.00
2022-12-20T04:18:48.264Z,5.00
2022-12-20T04:21:15.262Z,5.00
2022-12-20T04:23:46.063Z,5.00
2022-12-20T04:26:13.461Z,4.90
2022-12-20T04:28:40.352Z,4.90
2022-12-20T04:31:10.624Z,4.90
2022-12-20T04:33:39.024Z,4.90
2022-12-20T04:36:06.408Z,4.80
2022-12-20T04:38:35.238Z,4.80
2022-12-20T04:41:01.970Z,4.70
2022-12-20T04:43:39.034Z,4.70
2022-12-20T04:46:06.490Z,4.70
2022-12-20T04:51:20.403Z,4.60
2022-12-20T04:53:50.145Z,4.60
2022-12-20T04:56:34.727Z,4.60
2022-12-20T04:59:08.075Z,4.70
2022-12-20T05:01:35.757Z,5.00
2022-12-20T05:04:02.890Z,5.30
2022-12-20T05:06:33.020Z,5.60
2022-12-20T05:08:59.953Z,5.80
2022-12-20T05:11:26.727Z,6.10
2022-12-20T05:13:53.551Z,6.30
2022-12-20T05:16:21.452Z,6.40
2022-12-20T05:18:49.501Z,6.50
2022-12-20T05:21:36.150Z,6.50
2022-12-20T05:24:22.899Z,6.60
2022-12-20T05:26:59.028Z,6.70
2022-12-20T05:29:26.119Z,6.80
2022-12-20T05:31:53.734Z,6.80
2022-12-20T05:34:20.899Z,6.80
2022-12-20T05:36:52.331Z,6.80
2022-12-20T05:39:20.745Z,6.80
2022-12-20T05:41:49.328Z,6.80
2022-12-20T05:44:17.429Z,6.80
2022-12-20T05:46:49.033Z,6.80
2022-12-20T05:49:20.891Z,6.70
2022-12-20T05:51:48.245Z,6.70
2022-12-20T05:54:22.390Z,6.70
2022-12-20T05:56:55.195Z,6.70
2022-12-20T05:59:29.264Z,6.70
2022-12-20T06:01:56.100Z,6.60
2022-12-20T06:04:24.277Z,6.60
2022-12-20T06:06:52.893Z,6.60
2022-12-20T06:09:20.242Z,6.60
2022-12-20T06:12:01.829Z,6.40
2022-12-20T06:14:29.704Z,6.40
2022-12-20T06:16:57.444Z,6.30
2022-12-20T06:19:24.489Z,6.20
2022-12-20T06:21:54.207Z,6.10
2022-12-20T06:24:29.478Z,6.00
2022-12-20T06:26:56.635Z,5.90
2022-12-20T06:29:25.486Z,5.90
2022-12-20T06:32:01.102Z,5.90
2022-12-20T06:34:27.921Z,5.80
2022-12-20T06:36:55.119Z,5.80
2022-12-20T06:39:26.119Z,5.70
2022-12-20T06:42:03.767Z,5.70
2022-12-20T06:44:30.875Z,5.70
2022-12-20T06:46:57.932Z,5.70
2022-12-20T06:49:24.936Z,5.70
2022-12-20T06:51:51.735Z,5.70
2022-12-20T06:54:23.449Z,5.70
2022-12-20T06:56:50.789Z,5.70
2022-12-20T06:59:17.830Z,5.70
2022-12-20T07:01:44.864Z,5.70
2022-12-20T07:04:11.817Z,5.70
2022-12-20T07:06:38.511Z,5.90
2022-12-20T07:09:05.642Z,6.00
2022-12-20T07:11:32.405Z,6.10
2022-12-20T07:13:59.602Z,6.20
2022-12-20T07:16:26.449Z,6.30
2022-12-20T07:18:53.674Z,6.30
2022-12-20T07:21:20.873Z,6.50
2022-12-20T07:23:47.771Z,6.60
2022-12-20T07:26:15.299Z,6.70
2022-12-20T07:28:42.814Z,6.80
2022-12-20T07:31:09.605Z,6.90
2022-12-20T07:33:37.290Z,7.00
2022-12-20T07:36:08.005Z,7.10
2022-12-20T07:38:35.595Z,7.20
2022-12-20T07:41:12.772Z,7.40
2022-12-20T07:43:39.840Z,7.40
2022-12-20T07:46:07.078Z,7.40
2022-12-20T07:48:34.442Z,7.40
2022-12-20T07:51:03.056Z,7.40
2022-12-20T07:53:31.279Z,7.40
2022-12-20T07:55:58.846Z,7.50
2022-12-20T07:58:25.664Z,7.50
2022-12-20T08:00:52.435Z,7.40
2022-12-20T08:03:19.227Z,7.40
2022-12-20T08:05:47.767Z,7.40
2022-12-20T08:08:15.238Z,7.40
2022-12-20T08:10:42.243Z,7.40
2022-12-20T08:13:09.178Z,7.40
2022-12-20T08:15:36.633Z,7.40
2022-12-20T08:18:03.685Z,7.40
2022-12-20T08:20:30.361Z,7.30
2022-12-20T08:22:57.029Z,7.20
2022-12-20T08:25:23.896Z,7.10
2022-12-20T08:27:50.828Z,7.10
2022-12-20T08:30:17.646Z,7.00
2022-12-20T08:32:44.377Z,7.00
2022-12-20T08:35:11.127Z,7.10
2022-12-20T08:37:37.892Z,7.00
2022-12-20T08:40:04.854Z,7.10
2022-12-20T08:42:31.741Z,7.10
2022-12-20T08:44:58.426Z,7.20
2022-12-20T08:47:25.071Z,7.30
2022-12-20T08:49:51.756Z,7.30
2022-12-20T08:52:18.483Z,7.50
2022-12-20T08:54:45.552Z,7.60
2022-12-20T08:57:12.190Z,7.60
2022-12-20T08:59:38.935Z,7.70
2022-12-20T09:02:06.678Z,7.80
2022-12-20T09:04:33.807Z,7.70
2022-12-20T09:07:00.504Z,7.70
2022-12-20T09:09:27.234Z,7.70
2022-12-20T09:11:53.936Z,7.60
2022-12-20T09:14:20.653Z,7.50
2022-12-20T09:16:47.577Z,7.30
2022-12-20T09:19:14.443Z,7.10
2022-12-20T09:21:41.123Z,6.90
2022-12-20T09:24:08.048Z,6.80
2022-12-20T09:26:38.176Z,6.80
2022-12-20T09:29:05.336Z,6.70
2022-12-20T09:31:32.150Z,6.70
2022-12-20T09:33:59.428Z,6.70
2022-12-20T09:36:27.066Z,6.70
2022-12-20T09:38:54.121Z,6.70
2022-12-20T09:41:26.580Z,6.60
2022-12-20T09:43:53.360Z,6.60
2022-12-20T09:46:20.360Z,6.60
2022-12-20T09:48:47.623Z,6.60
2022-12-20T09:51:31.749Z,6.60
2022-12-20T09:54:04.264Z,6.60
2022-12-20T09:56:33.110Z,6.60
2022-12-20T09:59:02.879Z,6.60
2022-12-20T10:01:37.978Z,6.60
2022-12-20T10:04:21.203Z,6.70
2022-12-20T10:06:55.654Z,6.70
2022-12-20T10:09:40.980Z,6.70
2022-12-20T10:12:17.787Z,6.70
2022-12-20T10:14:58.591Z,6.80
2022-12-20T10:17:43.692Z,6.80
2022-12-20T10:20:27.565Z,6.80
2022-12-20T10:22:57.572Z,6.80
2022-12-20T10:25:25.206Z,6.80
2022-12-20T10:27:54.644Z,6.80
2022-12-20T10:30:22.732Z,6.80
2022-12-20T10:32:51.216Z,6.80
2022-12-20T10:35:29.084Z,6.80
2022-12-20T10:38:14.051Z,6.90
2022-12-20T10:43:40.267Z,6.90
2022-12-20T10:46:08.110Z,7.10
2022-12-20T10:48:36.549Z,7.10
2022-12-20T10:51:15.482Z,7.10
2022-12-20T10:53:57.106Z,7.20
2022-12-20T10:56:23.866Z,7.20
2022-12-20T10:59:01.502Z,7.30
2022-12-20T11:01:33.805Z,7.30
2022-12-20T11:04:08.122Z,7.20
2022-12-20T11:06:37.920Z,7.20
2022-12-20T11:09:18.026Z,7.20
2022-12-20T11:12:02.861Z,7.10
2022-12-20T11:14:38.709Z,7.10
2022-12-20T11:17:12.767Z,7.20
2022-12-20T11:19:56.199Z,7.20
2022-12-20T11:22:38.406Z,7.20
2022-12-20T11:25:30.603Z,7.20
2022-12-20T11:28:09.575Z,7.30
2022-12-20T11:30:43.295Z,7.30
2022-12-20T11:33:24.624Z,7.30
2022-12-20T11:35:55.737Z,7.30
2022-12-20T11:38:40.423Z,7.30
2022-12-20T11:41:14.037Z,7.20
2022-12-20T11:44:24.605Z,7.20
2022-12-20T11:46:58.857Z,7.10
2022-12-20T11:49:26.264Z,7.10
2022-12-20T11:51:58.352Z,7.10
2022-12-20T11:54:30.435Z,7.10
2022-12-20T11:57:00.855Z,7.20
2022-12-20T11:59:36.798Z,7.20
2022-12-20T12:02:04.040Z,7.20
2022-12-20T12:04:33.831Z,7.30
2022-12-20T12:07:07.367Z,7.30
2022-12-20T12:09:38.754Z,7.30
2022-12-20T12:12:19.363Z,7.30
2022-12-20T12:14:51.411Z,7.30
2022-12-20T12:17:23.238Z,7.30
2022-12-20T12:19:50.431Z,7.30
2022-12-20T12:22:21.206Z,7.30
2022-12-20T12:24:51.591Z,7.30
2022-12-20T12:27:25.403Z,7.20
2022-12-20T12:29:54.421Z,7.20
2022-12-20T12:32:33.427Z,7.20
2022-12-20T12:35:09.029Z,7.20
2022-12-20T12:37:55.563Z,7.20
2022-12-20T12:40:34.280Z,7.10
2022-12-20T12:43:13.319Z,7.10
2022-12-20T12:45:47.961Z,7.10
2022-12-20T12:48:19.264Z,7.10
2022-12-20T12:50:51.545Z,7.10
2022-12-20T12:53:21.409Z,7.10
2022-12-20T12:56:02.370Z,7.10
2022-12-20T12:58:46.528Z,7.10
2022-12-20T13:01:35.667Z,7.10
2022-12-20T13:04:02.438Z,7.10
2022-12-20T13:06:29.188Z,7.10
2022-12-20T13:08:58.638Z,7.10
2022-12-20T13:11:29.721Z,7.10
2022-12-20T13:14:15.494Z,7.00
2022-12-20T13:17:10.856Z,7.00
2022-12-20T13:19:29.097Z,7.00
2022-12-20T13:21:55.798Z,7.00
2022-12-20T13:24:45.046Z,7.00
2022-12-20T13:27:14.805Z,7.00
2022-12-20T13:29:52.367Z,7.00
2022-12-20T13:32:42.691Z,6.90
2022-12-20T13:35:24.912Z,6.90
2022-12-20T13:37:55.059Z,6.90
2022-12-20T13:40:42.701Z,6.80
2022-12-20T13:43:23.795Z,6.80
2022-12-20T13:46:08.677Z,6.70
2022-12-20T13:48:38.446Z,6.80
2022-12-20T13:51:06.003Z,6.80
2022-12-20T13:53:32.676Z,6.80
2022-12-20T13:56:19.259Z,6.80
2022-12-20T13:58:46.061Z,6.80
2022-12-20T14:01:13.416Z,6.80
2022-12-20T14:03:47.853Z,6.80
2022-12-20T14:06:16.655Z,6.80
2022-12-20T14:08:50.989Z,6.80
2022-12-20T14:11:28.329Z,6.70
2022-12-20T14:13:56.426Z,6.70
2022-12-20T14:16:23.737Z,6.70
2022-12-20T14:18:51.465Z,6.70
2022-12-20T14:21:18.675Z,6.70
2022-12-20T14:23:47.644Z,6.80
2022-12-20T14:26:15.969Z,6.80
2022-12-20T14:28:46.838Z,6.80
2022-12-20T14:31:24.186Z,6.80
2022-12-20T14:33:51.977Z,6.80
2022-12-20T14:36:20.157Z,6.80
2022-12-20T14:38:50.824Z,6.80
2022-12-20T14:41:36.934Z,6.80
2022-12-20T14:44:13.157Z,6.80
2022-12-20T14:46:46.888Z,6.80
2022-12-20T14:49:19.085Z,6.70
2022-12-20T14:51:46.364Z,6.70
2022-12-20T14:55:05.854Z,6.70
2022-12-20T14:57:22.016Z,6.70
2022-12-20T14:59:59.791Z,6.70
2022-12-20T15:02:46.329Z,6.70
2022-12-20T15:05:42.609Z,6.70
2022-12-20T15:08:10.115Z,6.60
2022-12-20T15:10:37.148Z,6.60
2022-12-20T15:13:04.417Z,6.60
2022-12-20T15:15:31.406Z,6.60
2022-12-20T15:17:58.023Z,6.50
2022-12-20T15:20:24.639Z,6.50
2022-12-20T15:22:51.323Z,6.50
2022-12-20T15:25:18.330Z,6.50
2022-12-20T15:27:44.998Z,6.50
2022-12-20T15:30:13.682Z,6.50
2022-12-20T15:32:54.545Z,6.50
2022-12-20T15:35:21.570Z,6.50
2022-12-20T15:37:48.231Z,6.50
2022-12-20T15:40:15.012Z,6.60
2022-12-20T15:42:43.083Z,6.60
2022-12-20T15:45:13.678Z,6.60
2022-12-20T15:47:40.335Z,6.60
2022-12-20T15:50:07.219Z,6.70
2022-12-20T15:52:33.928Z,6.70
2022-12-20T15:55:00.594Z,6.70
2022-12-20T15:57:28.669Z,6.80
2022-12-20T16:00:01.648Z,6.70
2022-12-20T16:02:38.471Z,6.80
2022-12-20T16:05:05.572Z,6.80
2022-12-20T16:07:32.264Z,6.80
2022-12-20T16:09:58.933Z,6.90
2022-12-20T16:12:27.090Z,6.80
2022-12-20T16:14:53.823Z,6.90
2022-12-20T16:17:20.477Z,6.80
2022-12-20T16:19:47.131Z,6.80
2022-12-20T16:22:18.213Z,6.80
2022-12-20T16:24:45.204Z,6.70
2022-12-20T16:27:11.931Z,6.70
2022-12-20T16:29:38.643Z,6.70
2022-12-20T16:32:15.853Z,6.70
2022-12-20T16:34:43.052Z,6.70
2022-12-20T16:37:11.744Z,6.70
2022-12-20T16:39:38.385Z,6.70
2022-12-20T16:42:09.457Z,6.70
2022-12-20T16:44:36.078Z,6.60
2022-12-20T16:47:02.871Z,6.60
2022-12-20T16:49:29.504Z,6.60
2022-12-20T16:51:56.140Z,6.50
2022-12-20T16:54:23.318Z,6.50
2022-12-20T16:56:55.090Z,6.50
2022-12-20T16:59:23.355Z,6.50
2022-12-20T17:01:52.109Z,6.50
2022-12-20T17:04:20.277Z,6.50
2022-12-20T17:06:47.483Z,6.50
2022-12-20T17:09:16.245Z,6.40
2022-12-20T17:11:43.254Z,6.40
2022-12-20T17:14:12.983Z,6.40
2022-12-20T17:16:40.389Z,6.40
2022-12-20T17:19:07.184Z,6.40
2022-12-20T17:24:20.279Z,6.40
2022-12-20T17:26:47.024Z,6.50
2022-12-20T17:29:13.742Z,6.50
2022-12-20T17:31:42.792Z,6.40
2022-12-20T17:34:19.796Z,6.50
2022-12-20T17:36:46.954Z,6.50
2022-12-20T17:39:13.612Z,6.50
2022-12-20T17:41:42.516Z,6.50
2022-12-20T17:44:17.086Z,6.50
2022-12-20T17:46:43.803Z,6.50
2022-12-20T17:49:10.760Z,6.50
2022-12-20T17:51:37.543Z,6.50
2022-12-20T17:54:04.326Z,6.50
2022-12-20T17:56:32.771Z,6.50
2022-12-20T17:59:00.236Z,6.50
2022-12-20T18:01:31.751Z,6.50
2022-12-20T18:04:04.931Z,6.50
2022-12-20T18:06:33.222Z,6.50
2022-12-20T18:09:00.453Z,6.50
2022-12-20T18:11:28.112Z,6.50
2022-12-20T18:13:56.152Z,6.50
2022-12-20T18:16:24.594Z,6.50
2022-12-20T18:18:53.061Z,6.50
2022-12-20T18:21:20.298Z,6.50
2022-12-20T18:23:47.791Z,6.50
2022-12-20T18:26:15.267Z,6.50
2022-12-20T18:28:43.099Z,6.50
2022-12-20T18:31:11.273Z,6.50
2022-12-20T18:33:38.059Z,6.50
2022-12-20T18:36:08.930Z,6.50
2022-12-20T18:38:36.751Z,6.50
2022-12-20T18:41:04.983Z,6.60
2022-12-20T18:43:32.466Z,6.60
2022-12-20T18:46:08.488Z,6.60
2022-12-20T18:48:35.535Z,6.70
2022-12-20T18:51:03.211Z,6.70
2022-12-20T18:53:31.303Z,6.70
2022-12-20T18:56:00.690Z,6.70
2022-12-20T18:58:27.459Z,6.80
2022-12-20T19:00:56.957Z,6.80
2022-12-20T19:03:23.863Z,6.80
2022-12-20T19:05:54.977Z,6.70
2022-12-20T19:08:22.393Z,6.70
2022-12-20T19:10:49.114Z,6.70
2022-12-20T19:13:17.676Z,6.60
2022-12-20T19:15:44.877Z,6.60
2022-12-20T19:18:11.747Z,6.50
2022-12-20T19:20:39.109Z,6.50
2022-12-20T19:23:05.765Z,6.50
2022-12-20T19:25:33.305Z,6.40
2022-12-20T19:27:59.945Z,6.40
2022-12-20T19:30:27.840Z,6.40
2022-12-20T19:32:55.331Z,6.40
2022-12-20T19:35:54.046Z,6.40
2022-12-20T19:38:09.234Z,6.40
2022-12-20T19:40:36.753Z,6.50
2022-12-20T19:43:03.404Z,6.50
2022-12-20T19:45:30.064Z,6.60
2022-12-20T19:47:56.673Z,6.60
2022-12-20T19:50:23.326Z,6.70
2022-12-20T19:52:51.405Z,6.70
2022-12-20T19:55:18.050Z,6.70
2022-12-20T19:57:44.725Z,6.70
2022-12-20T20:00:11.717Z,6.80
2022-12-20T20:02:38.538Z,6.80
2022-12-20T20:05:11.105Z,6.80
2022-12-20T20:07:41.227Z,6.80
2022-12-20T20:10:08.379Z,6.80
2022-12-20T20:12:38.190Z,6.80
2022-12-20T20:15:05.104Z,6.90
2022-12-20T20:17:31.760Z,6.90
2022-12-20T20:19:58.400Z,6.90
2022-12-20T20:22:25.353Z,6.90
2022-12-20T20:24:52.161Z,6.90
2022-12-20T20:27:18.807Z,6.90
2022-12-20T20:29:48.228Z,6.90
2022-12-20T20:32:15.239Z,6.80
2022-12-20T20:34:41.908Z,6.80
2022-12-20T20:37:09.191Z,6.90
2022-12-20T20:39:35.871Z,6.90
2022-12-20T20:42:02.840Z,6.90
2022-12-20T20:44:29.488Z,6.90
2022-12-20T20:46:56.196Z,6.90
2022-12-20T20:49:22.904Z,6.90
2022-12-20T20:51:49.585Z,6.90
2022-12-20T20:54:16.237Z,6.90
2022-12-20T20:56:43.015Z,6.90
2022-12-20T20:59:15.269Z,6.90
2022-12-20T21:01:44.307Z,6.80
2022-12-20T21:04:11.058Z,6.80
2022-12-20T21:06:41.771Z,6.80
2022-12-20T21:09:09.433Z,6.70
2022-12-20T21:11:37.017Z,6.70
2022-12-20T21:14:03.873Z,6.70
2022-12-20T21:16:30.644Z,6.70
2022-12-20T21:18:58.488Z,6.70
2022-12-20T21:21:25.819Z,6.70
2022-12-20T21:23:52.860Z,6.70
2022-12-20T21:26:20.216Z,6.60
2022-12-20T21:28:47.340Z,6.60
2022-12-20T21:31:15.839Z,6.50
2022-12-20T21:33:42.625Z,6.50
2022-12-20T21:36:14.253Z,6.60
2022-12-20T21:38:41.079Z,6.50
2022-12-20T21:41:08.896Z,6.50
2022-12-20T21:43:35.594Z,6.50
2022-12-20T21:46:02.323Z,6.50
2022-12-20T21:48:29.741Z,6.50
2022-12-20T21:51:01.275Z,6.50
2022-12-20T21:53:28.527Z,6.50
2022-12-20T21:55:56.062Z,6.50
2022-12-20T21:58:23.503Z,6.40
2022-12-20T22:00:54.740Z,6.40
2022-12-20T22:03:22.863Z,6.40
2022-12-20T22:05:50.594Z,6.40
2022-12-20T22:08:17.328Z,6.40
2022-12-20T22:10:44.091Z,6.40
2022-12-20T22:13:11.202Z,6.30
2022-12-20T22:15:38.499Z,6.40
2022-12-20T22:18:06.031Z,6.40
2022-12-20T22:20:33.199Z,6.40
2022-12-20T22:22:59.799Z,6.40
2022-12-20T22:25:26.539Z,6.40
2022-12-20T22:27:53.385Z,6.50
2022-12-20T22:30:20.083Z,6.50
2022-12-20T22:32:46.745Z,6.50
2022-12-20T22:35:17.626Z,6.60
2022-12-20T22:37:47.481Z,6.60
2022-12-20T22:40:14.384Z,6.50
2022-12-20T22:42:41.269Z,6.50
2022-12-20T22:45:08.234Z,6.40
2022-12-20T22:47:35.162Z,6.40
2022-12-20T22:50:01.833Z,6.40
2022-12-20T22:52:28.467Z,6.40
2022-12-20T22:54:55.140Z,6.40
2022-12-20T22:57:21.815Z,6.40
2022-12-20T22:59:48.407Z,6.50
2022-12-20T23:02:15.347Z,6.50
2022-12-20T23:04:42.280Z,6.60
2022-12-20T23:07:08.923Z,6.60
2022-12-20T23:09:35.610Z,6.60
2022-12-20T23:12:21.058Z,6.60
2022-12-20T23:15:25.924Z,6.60
2022-12-20T23:17:52.569Z,6.50
2022-12-20T23:20:37.985Z,6.60
2022-12-20T23:23:04.784Z,6.50
2022-12-20T23:25:31.385Z,6.50
2022-12-20T23:27:58.084Z,6.50
2022-12-20T23:30:24.792Z,6.50
2022-12-20T23:32:51.613Z,6.50
2022-12-20T23:35:18.997Z,6.50
2022-12-20T23:37:45.980Z,6.60
2022-12-20T23:40:13.415Z,6.60
2022-12-20T23:42:40.070Z,6.60
2022-12-20T23:45:07.011Z,6.60
2022-12-20T23:47:33.682Z,6.60
2022-12-20T23:50:00.280Z,6.60
2022-12-20T23:52:26.956Z,6.60
2022-12-20T23:54:53.657Z,6.60
2022-12-20T23:57:20.316Z,6.60
2022-12-20T23:59:47.044Z,6.50
